Y70 weather

Ionia County Airport
Ionia, Michigan, United States

Public forecast

Using degrees Fahrenheit for public forecast. Weather courtesy of forecast.io.

Current aviation weather report (METAR) for Ionia County Airport

Retrieved 2020/05/30 06:16 UTC (15 minutes ago):

KY70 300616Z AUTO 28007KT 10SM OVC065 14/09 A3004 RMK AO2 T01350091

Closest aviation forecast (TAF) to Ionia County Airport

Closest forecast is Gerald R. Ford International Airport, 20.6 nm (38.2 km) W. Retrieved 2020/05/30 06:27 UTC (4 minutes ago):

TAF KGRR 300525Z 3006/3106 30006KT P6SM BKN060 FM301500 30011KT P6SM BKN035 FM302200 33010KT P6SM SKC